sensor_id;sensor_type;location;lat;lon;timestamp;P1;durP1;ratioP1;P2;durP2;ratioP2
29728;SDS011;20055;51.498;11.960;2023-10-19T00:00:32;36.05;;;18.67;;
29728;SDS011;20055;51.498;11.960;2023-10-19T00:03:10;31.10;;;18.05;;
29728;SDS011;20055;51.498;11.960;2023-10-19T00:05:37;32.33;;;17.98;;
29728;SDS011;20055;51.498;11.960;2023-10-19T00:08:05;32.45;;;18.17;;
29728;SDS011;20055;51.498;11.960;2023-10-19T00:10:47;35.55;;;17.60;;
29728;SDS011;20055;51.498;11.960;2023-10-19T00:13:19;27.67;;;16.58;;
29728;SDS011;20055;51.498;11.960;2023-10-19T00:15:46;30.13;;;17.55;;
29728;SDS011;20055;51.498;11.960;2023-10-19T00:18:19;33.28;;;17.75;;
29728;SDS011;20055;51.498;11.960;2023-10-19T00:20:48;24.67;;;16.98;;
29728;SDS011;20055;51.498;11.960;2023-10-19T00:23:20;30.65;;;16.65;;
29728;SDS011;20055;51.498;11.960;2023-10-19T00:25:55;29.35;;;16.70;;
29728;SDS011;20055;51.498;11.960;2023-10-19T00:28:22;29.45;;;16.52;;
29728;SDS011;20055;51.498;11.960;2023-10-19T00:30:50;29.55;;;16.17;;
29728;SDS011;20055;51.498;11.960;2023-10-19T00:33:19;31.67;;;17.40;;
29728;SDS011;20055;51.498;11.960;2023-10-19T00:36:02;31.75;;;16.98;;
29728;SDS011;20055;51.498;11.960;2023-10-19T00:38:50;34.40;;;16.65;;
29728;SDS011;20055;51.498;11.960;2023-10-19T00:41:18;28.27;;;17.90;;
29728;SDS011;20055;51.498;11.960;2023-10-19T00:43:56;34.58;;;17.25;;
29728;SDS011;20055;51.498;11.960;2023-10-19T00:46:30;32.35;;;16.73;;
29728;SDS011;20055;51.498;11.960;2023-10-19T00:49:09;24.95;;;16.33;;
29728;SDS011;20055;51.498;11.960;2023-10-19T00:51:44;27.85;;;17.58;;
29728;SDS011;20055;51.498;11.960;2023-10-19T00:56:59;33.05;;;17.23;;
29728;SDS011;20055;51.498;11.960;2023-10-19T00:59:39;29.95;;;17.98;;
29728;SDS011;20055;51.498;11.960;2023-10-19T01:02:13;37.50;;;19.02;;
29728;SDS011;20055;51.498;11.960;2023-10-19T01:04:46;30.63;;;18.25;;
29728;SDS011;20055;51.498;11.960;2023-10-19T01:07:22;29.63;;;18.25;;
29728;SDS011;20055;51.498;11.960;2023-10-19T01:09:57;29.33;;;17.33;;
29728;SDS011;20055;51.498;11.960;2023-10-19T01:12:25;30.58;;;18.40;;
29728;SDS011;20055;51.498;11.960;2023-10-19T01:17:38;28.85;;;18.17;;
29728;SDS011;20055;51.498;11.960;2023-10-19T01:20:10;29.30;;;18.45;;
29728;SDS011;20055;51.498;11.960;2023-10-19T01:22:48;30.73;;;18.55;;
29728;SDS011;20055;51.498;11.960;2023-10-19T01:25:19;40.65;;;17.63;;
29728;SDS011;20055;51.498;11.960;2023-10-19T01:27:52;29.50;;;18.80;;
29728;SDS011;20055;51.498;11.960;2023-10-19T01:30:23;37.10;;;19.23;;
29728;SDS011;20055;51.498;11.960;2023-10-19T01:32:49;34.53;;;19.55;;
29728;SDS011;20055;51.498;11.960;2023-10-19T01:35:17;36.85;;;19.05;;
29728;SDS011;20055;51.498;11.960;2023-10-19T01:37:44;34.30;;;19.33;;
29728;SDS011;20055;51.498;11.960;2023-10-19T01:40:11;37.40;;;20.08;;
29728;SDS011;20055;51.498;11.960;2023-10-19T01:42:41;31.60;;;19.17;;
29728;SDS011;20055;51.498;11.960;2023-10-19T01:45:07;36.60;;;20.10;;
29728;SDS011;20055;51.498;11.960;2023-10-19T01:47:37;37.70;;;20.08;;
29728;SDS011;20055;51.498;11.960;2023-10-19T01:50:06;41.33;;;20.17;;
29728;SDS011;20055;51.498;11.960;2023-10-19T01:52:45;34.53;;;20.55;;
29728;SDS011;20055;51.498;11.960;2023-10-19T01:55:11;31.30;;;19.33;;
29728;SDS011;20055;51.498;11.960;2023-10-19T01:57:38;31.63;;;18.85;;
29728;SDS011;20055;51.498;11.960;2023-10-19T02:00:05;33.35;;;19.23;;
29728;SDS011;20055;51.498;11.960;2023-10-19T02:02:38;35.97;;;20.95;;
29728;SDS011;20055;51.498;11.960;2023-10-19T02:05:04;35.65;;;21.10;;
29728;SDS011;20055;51.498;11.960;2023-10-19T02:07:39;37.45;;;21.58;;
29728;SDS011;20055;51.498;11.960;2023-10-19T02:10:05;40.00;;;22.10;;
29728;SDS011;20055;51.498;11.960;2023-10-19T02:12:33;36.47;;;20.33;;
29728;SDS011;20055;51.498;11.960;2023-10-19T02:15:00;39.17;;;22.02;;
29728;SDS011;20055;51.498;11.960;2023-10-19T02:17:26;34.78;;;21.33;;
29728;SDS011;20055;51.498;11.960;2023-10-19T02:19:53;33.25;;;21.25;;
29728;SDS011;20055;51.498;11.960;2023-10-19T02:22:19;35.33;;;21.65;;
29728;SDS011;20055;51.498;11.960;2023-10-19T02:24:45;39.65;;;22.60;;
29728;SDS011;20055;51.498;11.960;2023-10-19T02:27:11;38.63;;;20.65;;
29728;SDS011;20055;51.498;11.960;2023-10-19T02:29:38;35.35;;;21.67;;
29728;SDS011;20055;51.498;11.960;2023-10-19T02:32:04;49.15;;;23.75;;
29728;SDS011;20055;51.498;11.960;2023-10-19T02:34:31;37.42;;;21.67;;
29728;SDS011;20055;51.498;11.960;2023-10-19T02:36:58;37.97;;;22.23;;
29728;SDS011;20055;51.498;11.960;2023-10-19T02:39:24;40.92;;;21.83;;
29728;SDS011;20055;51.498;11.960;2023-10-19T02:41:54;38.43;;;21.33;;
29728;SDS011;20055;51.498;11.960;2023-10-19T02:44:22;46.40;;;22.02;;
29728;SDS011;20055;51.498;11.960;2023-10-19T02:46:53;41.20;;;23.85;;
29728;SDS011;20055;51.498;11.960;2023-10-19T02:49:34;44.95;;;23.42;;
29728;SDS011;20055;51.498;11.960;2023-10-19T02:52:09;47.83;;;23.55;;
29728;SDS011;20055;51.498;11.960;2023-10-19T02:54:38;42.78;;;24.45;;
29728;SDS011;20055;51.498;11.960;2023-10-19T02:57:05;41.67;;;22.60;;
29728;SDS011;20055;51.498;11.960;2023-10-19T02:59:32;42.85;;;22.80;;
29728;SDS011;20055;51.498;11.960;2023-10-19T03:01:59;38.90;;;24.40;;
29728;SDS011;20055;51.498;11.960;2023-10-19T03:04:28;38.38;;;23.58;;
29728;SDS011;20055;51.498;11.960;2023-10-19T03:06:55;44.85;;;25.33;;
29728;SDS011;20055;51.498;11.960;2023-10-19T03:09:24;43.10;;;25.85;;
29728;SDS011;20055;51.498;11.960;2023-10-19T03:11:53;52.47;;;26.35;;
29728;SDS011;20055;51.498;11.960;2023-10-19T03:14:22;49.70;;;26.58;;
29728;SDS011;20055;51.498;11.960;2023-10-19T03:16:51;50.13;;;26.80;;
29728;SDS011;20055;51.498;11.960;2023-10-19T03:19:20;48.23;;;27.70;;
29728;SDS011;20055;51.498;11.960;2023-10-19T03:21:47;47.45;;;26.83;;
29728;SDS011;20055;51.498;11.960;2023-10-19T03:24:17;50.70;;;27.15;;
29728;SDS011;20055;51.498;11.960;2023-10-19T03:27:08;43.72;;;26.08;;
29728;SDS011;20055;51.498;11.960;2023-10-19T03:29:39;48.15;;;26.67;;
29728;SDS011;20055;51.498;11.960;2023-10-19T03:32:06;52.80;;;29.08;;
29728;SDS011;20055;51.498;11.960;2023-10-19T03:34:34;46.85;;;28.17;;
29728;SDS011;20055;51.498;11.960;2023-10-19T03:37:01;44.83;;;27.98;;
29728;SDS011;20055;51.498;11.960;2023-10-19T03:39:33;51.40;;;28.48;;
29728;SDS011;20055;51.498;11.960;2023-10-19T03:42:00;51.97;;;27.20;;
29728;SDS011;20055;51.498;11.960;2023-10-19T03:44:26;52.45;;;30.27;;
29728;SDS011;20055;51.498;11.960;2023-10-19T03:46:57;50.92;;;27.77;;
29728;SDS011;20055;51.498;11.960;2023-10-19T03:49:30;51.60;;;30.45;;
29728;SDS011;20055;51.498;11.960;2023-10-19T03:52:01;51.10;;;29.27;;
29728;SDS011;20055;51.498;11.960;2023-10-19T03:54:28;51.30;;;29.52;;
29728;SDS011;20055;51.498;11.960;2023-10-19T03:56:54;62.80;;;31.23;;
29728;SDS011;20055;51.498;11.960;2023-10-19T03:59:23;55.03;;;30.73;;
29728;SDS011;20055;51.498;11.960;2023-10-19T04:01:55;57.22;;;32.60;;
29728;SDS011;20055;51.498;11.960;2023-10-19T04:04:21;51.47;;;30.73;;
29728;SDS011;20055;51.498;11.960;2023-10-19T04:06:48;58.67;;;31.83;;
29728;SDS011;20055;51.498;11.960;2023-10-19T04:09:15;63.55;;;33.20;;
29728;SDS011;20055;51.498;11.960;2023-10-19T04:11:44;59.95;;;33.60;;
29728;SDS011;20055;51.498;11.960;2023-10-19T04:14:14;57.92;;;31.60;;
29728;SDS011;20055;51.498;11.960;2023-10-19T04:16:41;55.45;;;32.42;;
29728;SDS011;20055;51.498;11.960;2023-10-19T04:19:14;60.97;;;33.40;;
29728;SDS011;20055;51.498;11.960;2023-10-19T04:21:42;61.78;;;34.33;;
29728;SDS011;20055;51.498;11.960;2023-10-19T04:24:13;61.45;;;33.67;;
29728;SDS011;20055;51.498;11.960;2023-10-19T04:26:40;65.38;;;33.65;;
29728;SDS011;20055;51.498;11.960;2023-10-19T04:29:06;58.40;;;33.75;;
29728;SDS011;20055;51.498;11.960;2023-10-19T04:31:37;64.05;;;33.75;;
29728;SDS011;20055;51.498;11.960;2023-10-19T04:34:14;61.42;;;33.67;;
29728;SDS011;20055;51.498;11.960;2023-10-19T04:36:42;65.05;;;35.00;;
29728;SDS011;20055;51.498;11.960;2023-10-19T04:39:09;63.03;;;35.65;;
29728;SDS011;20055;51.498;11.960;2023-10-19T04:44:06;67.70;;;33.10;;
29728;SDS011;20055;51.498;11.960;2023-10-19T04:46:34;62.35;;;34.00;;
29728;SDS011;20055;51.498;11.960;2023-10-19T04:49:00;58.90;;;32.38;;
29728;SDS011;20055;51.498;11.960;2023-10-19T04:51:27;59.03;;;34.58;;
29728;SDS011;20055;51.498;11.960;2023-10-19T04:53:54;62.25;;;36.28;;
29728;SDS011;20055;51.498;11.960;2023-10-19T04:56:21;62.10;;;35.03;;
29728;SDS011;20055;51.498;11.960;2023-10-19T04:58:47;63.30;;;35.83;;
29728;SDS011;20055;51.498;11.960;2023-10-19T05:01:14;70.10;;;37.45;;
29728;SDS011;20055;51.498;11.960;2023-10-19T05:03:41;72.70;;;35.63;;
29728;SDS011;20055;51.498;11.960;2023-10-19T05:06:07;68.15;;;36.53;;
29728;SDS011;20055;51.498;11.960;2023-10-19T05:08:35;66.32;;;35.05;;
29728;SDS011;20055;51.498;11.960;2023-10-19T05:11:02;60.70;;;34.13;;
29728;SDS011;20055;51.498;11.960;2023-10-19T05:13:30;64.95;;;37.10;;
29728;SDS011;20055;51.498;11.960;2023-10-19T05:15:58;67.13;;;35.75;;
29728;SDS011;20055;51.498;11.960;2023-10-19T05:18:25;69.13;;;36.55;;
29728;SDS011;20055;51.498;11.960;2023-10-19T05:20:52;68.68;;;36.92;;
29728;SDS011;20055;51.498;11.960;2023-10-19T05:23:24;77.72;;;39.55;;
29728;SDS011;20055;51.498;11.960;2023-10-19T05:26:09;73.50;;;38.13;;
29728;SDS011;20055;51.498;11.960;2023-10-19T05:28:36;64.25;;;36.28;;
29728;SDS011;20055;51.498;11.960;2023-10-19T05:31:02;72.70;;;36.67;;
29728;SDS011;20055;51.498;11.960;2023-10-19T05:33:29;70.82;;;37.42;;
29728;SDS011;20055;51.498;11.960;2023-10-19T05:35:56;63.05;;;35.47;;
29728;SDS011;20055;51.498;11.960;2023-10-19T05:38:23;67.90;;;36.70;;
29728;SDS011;20055;51.498;11.960;2023-10-19T05:40:49;63.58;;;36.30;;
29728;SDS011;20055;51.498;11.960;2023-10-19T05:43:17;69.55;;;37.22;;
29728;SDS011;20055;51.498;11.960;2023-10-19T05:45:44;66.97;;;38.22;;
29728;SDS011;20055;51.498;11.960;2023-10-19T05:48:10;71.15;;;36.78;;
29728;SDS011;20055;51.498;11.960;2023-10-19T05:50:37;67.32;;;36.65;;
29728;SDS011;20055;51.498;11.960;2023-10-19T05:53:03;71.43;;;38.75;;
29728;SDS011;20055;51.498;11.960;2023-10-19T05:55:30;72.40;;;36.72;;
29728;SDS011;20055;51.498;11.960;2023-10-19T05:57:57;72.50;;;39.17;;
29728;SDS011;20055;51.498;11.960;2023-10-19T06:00:24;74.30;;;38.53;;
29728;SDS011;20055;51.498;11.960;2023-10-19T06:02:52;80.10;;;40.83;;
29728;SDS011;20055;51.498;11.960;2023-10-19T06:05:18;75.90;;;38.90;;
29728;SDS011;20055;51.498;11.960;2023-10-19T06:07:45;71.03;;;38.45;;
29728;SDS011;20055;51.498;11.960;2023-10-19T06:10:13;70.22;;;38.53;;
29728;SDS011;20055;51.498;11.960;2023-10-19T06:12:43;76.70;;;37.40;;
29728;SDS011;20055;51.498;11.960;2023-10-19T06:15:10;65.32;;;35.72;;
29728;SDS011;20055;51.498;11.960;2023-10-19T06:17:38;68.75;;;36.22;;
29728;SDS011;20055;51.498;11.960;2023-10-19T06:20:06;75.78;;;37.92;;
29728;SDS011;20055;51.498;11.960;2023-10-19T06:22:35;76.10;;;37.97;;
29728;SDS011;20055;51.498;11.960;2023-10-19T06:25:04;72.80;;;36.67;;
29728;SDS011;20055;51.498;11.960;2023-10-19T06:27:31;74.07;;;38.58;;
29728;SDS011;20055;51.498;11.960;2023-10-19T06:29:57;72.43;;;36.30;;
29728;SDS011;20055;51.498;11.960;2023-10-19T06:32:23;68.55;;;36.35;;
29728;SDS011;20055;51.498;11.960;2023-10-19T06:34:50;71.22;;;35.13;;
29728;SDS011;20055;51.498;11.960;2023-10-19T06:37:16;67.78;;;34.85;;
29728;SDS011;20055;51.498;11.960;2023-10-19T06:39:42;69.95;;;34.50;;
29728;SDS011;20055;51.498;11.960;2023-10-19T06:42:09;64.03;;;32.95;;
29728;SDS011;20055;51.498;11.960;2023-10-19T06:44:42;68.22;;;34.65;;
29728;SDS011;20055;51.498;11.960;2023-10-19T06:47:09;68.68;;;33.13;;
29728;SDS011;20055;51.498;11.960;2023-10-19T06:49:36;62.60;;;31.65;;
29728;SDS011;20055;51.498;11.960;2023-10-19T06:52:03;63.30;;;32.53;;
29728;SDS011;20055;51.498;11.960;2023-10-19T06:54:37;61.78;;;31.35;;
29728;SDS011;20055;51.498;11.960;2023-10-19T06:57:03;61.83;;;31.60;;
29728;SDS011;20055;51.498;11.960;2023-10-19T06:59:30;63.92;;;32.75;;
29728;SDS011;20055;51.498;11.960;2023-10-19T07:01:58;58.28;;;31.55;;
29728;SDS011;20055;51.498;11.960;2023-10-19T07:04:27;58.30;;;32.40;;
29728;SDS011;20055;51.498;11.960;2023-10-19T07:06:54;60.97;;;32.25;;
29728;SDS011;20055;51.498;11.960;2023-10-19T07:09:21;60.35;;;31.65;;
29728;SDS011;20055;51.498;11.960;2023-10-19T07:11:48;52.58;;;30.15;;
29728;SDS011;20055;51.498;11.960;2023-10-19T07:14:19;60.08;;;31.85;;
29728;SDS011;20055;51.498;11.960;2023-10-19T07:16:48;54.63;;;30.90;;
29728;SDS011;20055;51.498;11.960;2023-10-19T07:19:16;54.67;;;30.52;;
29728;SDS011;20055;51.498;11.960;2023-10-19T07:21:43;55.35;;;29.27;;
29728;SDS011;20055;51.498;11.960;2023-10-19T07:24:14;54.40;;;30.15;;
29728;SDS011;20055;51.498;11.960;2023-10-19T07:26:44;49.67;;;29.67;;
29728;SDS011;20055;51.498;11.960;2023-10-19T07:29:28;50.05;;;28.23;;
29728;SDS011;20055;51.498;11.960;2023-10-19T07:31:55;54.10;;;28.58;;
29728;SDS011;20055;51.498;11.960;2023-10-19T07:34:21;50.30;;;29.30;;
29728;SDS011;20055;51.498;11.960;2023-10-19T07:36:51;54.85;;;29.25;;
29728;SDS011;20055;51.498;11.960;2023-10-19T07:39:19;55.00;;;31.15;;
29728;SDS011;20055;51.498;11.960;2023-10-19T07:41:48;52.78;;;28.90;;
29728;SDS011;20055;51.498;11.960;2023-10-19T07:44:15;48.75;;;29.25;;
29728;SDS011;20055;51.498;11.960;2023-10-19T07:46:42;52.00;;;29.98;;
29728;SDS011;20055;51.498;11.960;2023-10-19T07:49:09;55.17;;;29.35;;
29728;SDS011;20055;51.498;11.960;2023-10-19T07:51:46;48.85;;;28.05;;
29728;SDS011;20055;51.498;11.960;2023-10-19T07:54:13;51.75;;;30.20;;
29728;SDS011;20055;51.498;11.960;2023-10-19T07:56:39;52.42;;;29.75;;
29728;SDS011;20055;51.498;11.960;2023-10-19T07:59:06;50.50;;;29.83;;
29728;SDS011;20055;51.498;11.960;2023-10-19T08:01:32;54.47;;;28.95;;
29728;SDS011;20055;51.498;11.960;2023-10-19T08:03:59;54.05;;;28.92;;
29728;SDS011;20055;51.498;11.960;2023-10-19T08:06:25;47.80;;;27.60;;
29728;SDS011;20055;51.498;11.960;2023-10-19T08:08:52;43.97;;;26.75;;
29728;SDS011;20055;51.498;11.960;2023-10-19T08:11:18;50.13;;;27.95;;
29728;SDS011;20055;51.498;11.960;2023-10-19T08:13:45;42.08;;;25.80;;
29728;SDS011;20055;51.498;11.960;2023-10-19T08:16:11;52.15;;;28.30;;
29728;SDS011;20055;51.498;11.960;2023-10-19T08:18:38;51.10;;;27.13;;
29728;SDS011;20055;51.498;11.960;2023-10-19T08:21:05;56.50;;;28.98;;
29728;SDS011;20055;51.498;11.960;2023-10-19T08:23:31;51.15;;;28.00;;
29728;SDS011;20055;51.498;11.960;2023-10-19T08:25:58;47.15;;;28.08;;
29728;SDS011;20055;51.498;11.960;2023-10-19T08:28:25;47.15;;;27.58;;
29728;SDS011;20055;51.498;11.960;2023-10-19T08:30:51;43.53;;;25.67;;
29728;SDS011;20055;51.498;11.960;2023-10-19T08:33:26;44.78;;;26.92;;
29728;SDS011;20055;51.498;11.960;2023-10-19T08:35:53;46.90;;;27.33;;
29728;SDS011;20055;51.498;11.960;2023-10-19T08:38:20;43.35;;;26.00;;
29728;SDS011;20055;51.498;11.960;2023-10-19T08:40:47;45.70;;;25.67;;
29728;SDS011;20055;51.498;11.960;2023-10-19T08:43:17;44.83;;;24.43;;
29728;SDS011;20055;51.498;11.960;2023-10-19T08:45:44;41.97;;;24.50;;
29728;SDS011;20055;51.498;11.960;2023-10-19T08:48:11;43.17;;;26.60;;
29728;SDS011;20055;51.498;11.960;2023-10-19T08:50:37;50.83;;;25.90;;
29728;SDS011;20055;51.498;11.960;2023-10-19T08:53:05;45.25;;;27.42;;
29728;SDS011;20055;51.498;11.960;2023-10-19T08:55:34;47.63;;;26.33;;
29728;SDS011;20055;51.498;11.960;2023-10-19T08:58:00;43.92;;;25.55;;
29728;SDS011;20055;51.498;11.960;2023-10-19T09:00:27;40.50;;;24.98;;
29728;SDS011;20055;51.498;11.960;2023-10-19T09:02:54;49.17;;;25.67;;
29728;SDS011;20055;51.498;11.960;2023-10-19T09:05:41;36.53;;;24.10;;
29728;SDS011;20055;51.498;11.960;2023-10-19T09:08:07;41.13;;;24.75;;
29728;SDS011;20055;51.498;11.960;2023-10-19T09:10:35;35.00;;;22.75;;
29728;SDS011;20055;51.498;11.960;2023-10-19T09:13:03;43.67;;;24.98;;
29728;SDS011;20055;51.498;11.960;2023-10-19T09:15:33;40.47;;;24.08;;
29728;SDS011;20055;51.498;11.960;2023-10-19T09:18:14;40.30;;;23.67;;
29728;SDS011;20055;51.498;11.960;2023-10-19T09:20:45;38.15;;;23.73;;
29728;SDS011;20055;51.498;11.960;2023-10-19T09:23:23;42.67;;;25.17;;
29728;SDS011;20055;51.498;11.960;2023-10-19T09:25:56;37.08;;;24.67;;
29728;SDS011;20055;51.498;11.960;2023-10-19T09:28:24;36.50;;;23.98;;
29728;SDS011;20055;51.498;11.960;2023-10-19T09:30:51;41.55;;;25.30;;
29728;SDS011;20055;51.498;11.960;2023-10-19T09:33:18;49.45;;;26.40;;
29728;SDS011;20055;51.498;11.960;2023-10-19T09:35:47;43.22;;;26.23;;
29728;SDS011;20055;51.498;11.960;2023-10-19T09:38:16;37.10;;;22.83;;
29728;SDS011;20055;51.498;11.960;2023-10-19T09:40:50;43.72;;;24.20;;
29728;SDS011;20055;51.498;11.960;2023-10-19T09:46:08;37.08;;;24.75;;
29728;SDS011;20055;51.498;11.960;2023-10-19T09:48:41;38.37;;;23.50;;
29728;SDS011;20055;51.498;11.960;2023-10-19T09:51:11;38.08;;;24.88;;
29728;SDS011;20055;51.498;11.960;2023-10-19T09:53:38;37.20;;;24.00;;
29728;SDS011;20055;51.498;11.960;2023-10-19T09:56:06;37.15;;;24.27;;
29728;SDS011;20055;51.498;11.960;2023-10-19T09:58:41;33.80;;;23.08;;
29728;SDS011;20055;51.498;11.960;2023-10-19T10:01:47;41.28;;;23.13;;
29728;SDS011;20055;51.498;11.960;2023-10-19T10:04:32;36.97;;;22.67;;
29728;SDS011;20055;51.498;11.960;2023-10-19T10:06:59;37.45;;;22.85;;
29728;SDS011;20055;51.498;11.960;2023-10-19T10:09:26;36.10;;;22.30;;
29728;SDS011;20055;51.498;11.960;2023-10-19T10:11:52;33.65;;;21.42;;
29728;SDS011;20055;51.498;11.960;2023-10-19T10:14:22;41.20;;;24.10;;
29728;SDS011;20055;51.498;11.960;2023-10-19T10:17:01;39.85;;;24.85;;
29728;SDS011;20055;51.498;11.960;2023-10-19T10:19:28;40.30;;;25.38;;
29728;SDS011;20055;51.498;11.960;2023-10-19T10:22:07;33.22;;;23.00;;
29728;SDS011;20055;51.498;11.960;2023-10-19T10:24:41;36.95;;;22.20;;
29728;SDS011;20055;51.498;11.960;2023-10-19T10:27:07;37.67;;;20.98;;
29728;SDS011;20055;51.498;11.960;2023-10-19T10:29:35;30.70;;;20.40;;
29728;SDS011;20055;51.498;11.960;2023-10-19T10:32:02;31.55;;;20.70;;
29728;SDS011;20055;51.498;11.960;2023-10-19T10:37:03;30.02;;;19.13;;
29728;SDS011;20055;51.498;11.960;2023-10-19T10:42:03;31.13;;;20.10;;
29728;SDS011;20055;51.498;11.960;2023-10-19T10:44:43;31.00;;;19.77;;
29728;SDS011;20055;51.498;11.960;2023-10-19T10:52:30;27.33;;;18.88;;
29728;SDS011;20055;51.498;11.960;2023-10-19T10:54:58;28.80;;;19.90;;
29728;SDS011;20055;51.498;11.960;2023-10-19T10:57:32;31.15;;;20.15;;
29728;SDS011;20055;51.498;11.960;2023-10-19T11:00:06;35.22;;;20.65;;
29728;SDS011;20055;51.498;11.960;2023-10-19T11:02:36;34.75;;;20.23;;
29728;SDS011;20055;51.498;11.960;2023-10-19T11:07:37;27.58;;;17.92;;
29728;SDS011;20055;51.498;11.960;2023-10-19T11:10:05;26.25;;;16.73;;
29728;SDS011;20055;51.498;11.960;2023-10-19T11:12:32;28.15;;;17.63;;
29728;SDS011;20055;51.498;11.960;2023-10-19T11:15:02;26.20;;;18.25;;
29728;SDS011;20055;51.498;11.960;2023-10-19T11:17:42;29.23;;;18.83;;
29728;SDS011;20055;51.498;11.960;2023-10-19T11:20:09;30.27;;;18.60;;
29728;SDS011;20055;51.498;11.960;2023-10-19T11:22:50;33.10;;;18.23;;
29728;SDS011;20055;51.498;11.960;2023-10-19T11:27:55;29.13;;;18.02;;
29728;SDS011;20055;51.498;11.960;2023-10-19T11:30:27;35.28;;;18.92;;
29728;SDS011;20055;51.498;11.960;2023-10-19T11:32:57;31.80;;;17.63;;
29728;SDS011;20055;51.498;11.960;2023-10-19T11:35:25;30.30;;;18.13;;
29728;SDS011;20055;51.498;11.960;2023-10-19T11:37:54;26.33;;;17.33;;
29728;SDS011;20055;51.498;11.960;2023-10-19T11:40:22;29.80;;;18.60;;
29728;SDS011;20055;51.498;11.960;2023-10-19T11:42:50;27.15;;;18.45;;
29728;SDS011;20055;51.498;11.960;2023-10-19T11:45:17;31.55;;;17.77;;
29728;SDS011;20055;51.498;11.960;2023-10-19T11:47:44;29.10;;;18.05;;
29728;SDS011;20055;51.498;11.960;2023-10-19T11:50:11;26.40;;;17.20;;
29728;SDS011;20055;51.498;11.960;2023-10-19T11:52:40;22.13;;;16.08;;
29728;SDS011;20055;51.498;11.960;2023-10-19T11:55:08;23.48;;;14.23;;
29728;SDS011;20055;51.498;11.960;2023-10-19T11:57:35;22.25;;;15.15;;
29728;SDS011;20055;51.498;11.960;2023-10-19T12:00:02;23.25;;;14.65;;
29728;SDS011;20055;51.498;11.960;2023-10-19T12:02:37;22.48;;;15.82;;
29728;SDS011;20055;51.498;11.960;2023-10-19T12:05:06;23.67;;;14.85;;
29728;SDS011;20055;51.498;11.960;2023-10-19T12:07:36;33.55;;;15.63;;
29728;SDS011;20055;51.498;11.960;2023-10-19T12:10:04;19.48;;;13.15;;
29728;SDS011;20055;51.498;11.960;2023-10-19T12:12:34;23.13;;;14.88;;
29728;SDS011;20055;51.498;11.960;2023-10-19T12:15:05;19.38;;;12.32;;
29728;SDS011;20055;51.498;11.960;2023-10-19T12:17:32;24.75;;;13.90;;
29728;SDS011;20055;51.498;11.960;2023-10-19T12:19:58;20.85;;;13.50;;
29728;SDS011;20055;51.498;11.960;2023-10-19T12:22:25;17.73;;;11.13;;
29728;SDS011;20055;51.498;11.960;2023-10-19T12:24:57;24.42;;;12.82;;
29728;SDS011;20055;51.498;11.960;2023-10-19T12:27:23;25.67;;;12.95;;
29728;SDS011;20055;51.498;11.960;2023-10-19T12:29:54;29.65;;;14.18;;
29728;SDS011;20055;51.498;11.960;2023-10-19T12:32:21;24.77;;;15.18;;
29728;SDS011;20055;51.498;11.960;2023-10-19T12:34:47;19.15;;;13.07;;
29728;SDS011;20055;51.498;11.960;2023-10-19T12:37:23;19.40;;;13.98;;
29728;SDS011;20055;51.498;11.960;2023-10-19T12:39:54;21.27;;;14.38;;
29728;SDS011;20055;51.498;11.960;2023-10-19T12:42:21;23.52;;;13.80;;
29728;SDS011;20055;51.498;11.960;2023-10-19T12:44:48;21.52;;;14.10;;
29728;SDS011;20055;51.498;11.960;2023-10-19T12:47:15;25.05;;;14.80;;
29728;SDS011;20055;51.498;11.960;2023-10-19T12:49:43;22.88;;;14.65;;
29728;SDS011;20055;51.498;11.960;2023-10-19T12:52:11;26.83;;;14.75;;
29728;SDS011;20055;51.498;11.960;2023-10-19T12:54:38;21.13;;;14.20;;
29728;SDS011;20055;51.498;11.960;2023-10-19T12:57:05;21.10;;;13.35;;
29728;SDS011;20055;51.498;11.960;2023-10-19T12:59:36;20.77;;;13.32;;
29728;SDS011;20055;51.498;11.960;2023-10-19T13:02:05;21.70;;;15.07;;
29728;SDS011;20055;51.498;11.960;2023-10-19T13:04:34;27.73;;;14.40;;
29728;SDS011;20055;51.498;11.960;2023-10-19T13:07:00;24.75;;;15.80;;
29728;SDS011;20055;51.498;11.960;2023-10-19T13:09:28;23.50;;;16.45;;
29728;SDS011;20055;51.498;11.960;2023-10-19T13:11:58;35.00;;;16.33;;
29728;SDS011;20055;51.498;11.960;2023-10-19T13:14:28;22.67;;;15.45;;
29728;SDS011;20055;51.498;11.960;2023-10-19T13:16:54;16.83;;;12.40;;
29728;SDS011;20055;51.498;11.960;2023-10-19T13:19:21;28.95;;;16.33;;
29728;SDS011;20055;51.498;11.960;2023-10-19T13:21:50;26.60;;;16.48;;
29728;SDS011;20055;51.498;11.960;2023-10-19T13:24:17;24.90;;;16.30;;
29728;SDS011;20055;51.498;11.960;2023-10-19T13:26:48;24.67;;;15.15;;
29728;SDS011;20055;51.498;11.960;2023-10-19T13:29:14;30.90;;;20.13;;
29728;SDS011;20055;51.498;11.960;2023-10-19T13:31:41;37.63;;;28.17;;
29728;SDS011;20055;51.498;11.960;2023-10-19T13:34:17;24.05;;;16.13;;
29728;SDS011;20055;51.498;11.960;2023-10-19T13:36:44;24.73;;;16.08;;
29728;SDS011;20055;51.498;11.960;2023-10-19T13:39:12;26.73;;;16.45;;
29728;SDS011;20055;51.498;11.960;2023-10-19T13:41:44;27.50;;;16.40;;
29728;SDS011;20055;51.498;11.960;2023-10-19T13:44:10;35.90;;;18.85;;
29728;SDS011;20055;51.498;11.960;2023-10-19T13:46:56;29.75;;;18.75;;
29728;SDS011;20055;51.498;11.960;2023-10-19T13:49:22;27.45;;;17.08;;
29728;SDS011;20055;51.498;11.960;2023-10-19T13:51:48;23.65;;;16.38;;
29728;SDS011;20055;51.498;11.960;2023-10-19T13:54:14;24.92;;;16.80;;
29728;SDS011;20055;51.498;11.960;2023-10-19T13:56:41;30.85;;;18.42;;
29728;SDS011;20055;51.498;11.960;2023-10-19T13:59:07;29.95;;;16.77;;
29728;SDS011;20055;51.498;11.960;2023-10-19T14:01:33;32.72;;;18.10;;
29728;SDS011;20055;51.498;11.960;2023-10-19T14:03:59;31.65;;;19.02;;
29728;SDS011;20055;51.498;11.960;2023-10-19T14:06:26;32.08;;;17.83;;
29728;SDS011;20055;51.498;11.960;2023-10-19T14:08:52;33.13;;;20.92;;
29728;SDS011;20055;51.498;11.960;2023-10-19T14:11:20;32.47;;;19.15;;
29728;SDS011;20055;51.498;11.960;2023-10-19T14:13:48;30.17;;;20.33;;
29728;SDS011;20055;51.498;11.960;2023-10-19T14:16:17;33.17;;;20.13;;
29728;SDS011;20055;51.498;11.960;2023-10-19T14:18:43;29.73;;;20.08;;
29728;SDS011;20055;51.498;11.960;2023-10-19T14:21:14;28.52;;;18.85;;
29728;SDS011;20055;51.498;11.960;2023-10-19T14:23:42;39.33;;;19.80;;
29728;SDS011;20055;51.498;11.960;2023-10-19T14:26:10;33.70;;;20.30;;
29728;SDS011;20055;51.498;11.960;2023-10-19T14:28:37;35.92;;;22.90;;
29728;SDS011;20055;51.498;11.960;2023-10-19T14:31:04;33.45;;;21.67;;
29728;SDS011;20055;51.498;11.960;2023-10-19T14:33:30;32.58;;;20.77;;
29728;SDS011;20055;51.498;11.960;2023-10-19T14:35:56;34.95;;;21.48;;
29728;SDS011;20055;51.498;11.960;2023-10-19T14:38:23;32.20;;;21.50;;
29728;SDS011;20055;51.498;11.960;2023-10-19T14:40:51;35.42;;;23.38;;
29728;SDS011;20055;51.498;11.960;2023-10-19T14:43:19;33.60;;;22.73;;
29728;SDS011;20055;51.498;11.960;2023-10-19T14:45:45;38.65;;;25.15;;